Time;durP1;ratioP1;P1;durP2;ratioP2;P2;SDS_P1;SDS_P2;PMS_P1;PMS_P2;Temp;Humidity;BMP_temperature;BMP_pressure;BME280_temperature;BME280_humidity;BME280_pressure;Samples;Min_cycle;Max_cycle;Signal;HPM_P1;HPM_P2
2023/04/30 00:01:54;;;;;;;7.97;4.28;;;6.50;99.90;;;;;;5039117;28;20504;-80
2023/04/30 00:04:20;;;;;;;8.70;4.35;;;6.50;99.90;;;;;;5033468;28;20053;-80
2023/04/30 00:06:45;;;;;;;6.40;4.30;;;6.50;99.90;;;;;;5049844;28;20084;-79
2023/04/30 00:09:11;;;;;;;11.52;4.38;;;6.50;99.90;;;;;;5049648;28;20045;-79
2023/04/30 00:11:36;;;;;;;8.85;4.30;;;6.40;99.90;;;;;;5029130;28;20060;-80
2023/04/30 00:14:02;;;;;;;8.40;4.18;;;6.40;99.90;;;;;;5019113;28;20098;-80
2023/04/30 00:16:28;;;;;;;9.07;4.30;;;6.40;99.90;;;;;;5015427;28;20132;-80
2023/04/30 00:18:53;;;;;;;8.30;4.25;;;6.30;99.90;;;;;;5049558;28;20045;-80
2023/04/30 00:21:19;;;;;;;9.38;4.03;;;6.30;99.90;;;;;;5032585;28;20083;-80
2023/04/30 00:23:44;;;;;;;7.70;4.35;;;6.20;99.90;;;;;;5031701;28;20037;-80
2023/04/30 00:26:10;;;;;;;6.35;4.30;;;6.20;99.90;;;;;;5049318;28;20124;-80
2023/04/30 00:28:35;;;;;;;8.70;4.47;;;6.20;99.90;;;;;;5031198;28;20045;-80
2023/04/30 00:31:01;;;;;;;7.00;3.95;;;6.20;99.90;;;;;;5031051;28;20045;-80
2023/04/30 00:33:27;;;;;;;8.40;3.83;;;6.10;99.90;;;;;;5030299;28;20083;-80
2023/04/30 00:35:52;;;;;;;6.20;4.10;;;6.10;99.90;;;;;;5049569;28;20045;-80
2023/04/30 00:38:18;;;;;;;9.00;4.38;;;6.00;99.90;;;;;;5045484;28;20683;-80
2023/04/30 00:40:45;;;;;;;8.15;4.03;;;6.00;99.90;;;;;;5035500;28;20481;-80
2023/04/30 00:43:10;;;;;;;7.10;3.72;;;6.00;99.90;;;;;;5031820;28;20052;-79
2023/04/30 00:45:36;;;;;;;7.32;4.07;;;5.90;99.90;;;;;;5030963;28;20396;-79
2023/04/30 00:48:02;;;;;;;5.50;4.18;;;5.90;99.90;;;;;;5025190;28;20050;-80
2023/04/30 00:50:28;;;;;;;6.35;3.83;;;5.90;99.90;;;;;;5032172;28;20530;-79
2023/04/30 00:52:54;;;;;;;7.85;4.10;;;5.90;99.90;;;;;;5049136;28;20045;-80
2023/04/30 00:55:20;;;;;;;7.40;4.15;;;5.90;99.90;;;;;;5031139;28;20088;-80
2023/04/30 00:57:46;;;;;;;7.07;4.32;;;5.80;99.90;;;;;;5049487;28;20475;-80
2023/04/30 01:00:12;;;;;;;6.80;3.90;;;5.80;99.90;;;;;;5048888;28;20094;-80
2023/04/30 01:02:39;;;;;;;7.72;4.30;;;5.80;99.90;;;;;;5030747;28;20045;-80
2023/04/30 01:05:06;;;;;;;6.90;4.07;;;5.80;99.90;;;;;;5048747;28;20056;-80
2023/04/30 01:07:33;;;;;;;6.43;4.22;;;5.80;99.90;;;;;;5030881;28;20041;-80
2023/04/30 01:09:59;;;;;;;8.43;4.30;;;5.70;99.90;;;;;;5049708;28;20484;-80
2023/04/30 01:13:03;;;;;;;5.07;4.10;;;5.70;99.90;;;;;;5005127;28;20056;-80
2023/04/30 01:15:58;;;;;;;8.05;4.40;;;5.60;99.90;;;;;;5027505;28;20068;-79
2023/04/30 01:18:38;;;;;;;4.93;3.58;;;5.60;99.90;;;;;;5016626;28;20496;-79
2023/04/30 01:21:05;;;;;;;7.95;4.47;;;5.60;99.90;;;;;;5025439;28;20654;-80
2023/04/30 01:23:47;;;;;;;9.43;4.63;;;5.60;99.90;;;;;;5030277;28;20045;-79
2023/04/30 01:26:13;;;;;;;6.03;4.55;;;5.50;99.90;;;;;;5029897;28;20045;-80
2023/04/30 01:28:42;;;;;;;6.13;4.00;;;5.50;99.90;;;;;;5046920;28;20049;-80
2023/04/30 01:31:16;;;;;;;5.80;4.20;;;5.50;99.90;;;;;;5014408;28;20087;-79
2023/04/30 01:33:42;;;;;;;5.95;4.38;;;5.40;99.90;;;;;;5030271;28;20507;-79
2023/04/30 01:36:35;;;;;;;7.20;3.72;;;5.40;99.90;;;;;;5029050;28;20059;-80
2023/04/30 01:39:19;;;;;;;;;;;5.30;99.90;;;;;;5036116;28;20517;-80
2023/04/30 01:41:50;;;;;;;5.07;4.07;;;5.30;99.90;;;;;;5020814;28;19921;-80
2023/04/30 01:44:36;;;;;;;10.82;4.35;;;5.30;99.90;;;;;;5030523;28;20055;-80
2023/04/30 01:47:25;;;;;;;9.32;4.45;;;5.30;99.90;;;;;;5031497;28;20040;-80
2023/04/30 01:50:04;;;;;;;8.00;4.50;;;5.30;99.90;;;;;;4999335;28;20462;-79
2023/04/30 01:52:40;;;;;;;5.75;4.20;;;5.20;99.90;;;;;;5054898;28;20057;-80
2023/04/30 01:55:56;;;;;;;4.72;4.28;;;5.20;99.90;;;;;;5031416;28;20404;-79
2023/04/30 01:58:23;;;;;;;10.25;4.65;;;5.20;99.90;;;;;;5004612;28;20111;-80
2023/04/30 02:00:49;;;;;;;7.18;3.95;;;5.20;99.90;;;;;;5010847;28;20120;-80
2023/04/30 02:03:14;;;;;;;8.60;4.50;;;5.10;99.90;;;;;;4995152;28;20120;-80
2023/04/30 02:05:40;;;;;;;5.80;4.60;;;5.10;99.90;;;;;;5045193;28;20040;-80
2023/04/30 02:08:06;;;;;;;6.60;4.32;;;5.10;99.90;;;;;;5039257;28;20042;-80
2023/04/30 02:10:32;;;;;;;6.22;4.40;;;5.00;99.90;;;;;;5029227;28;20045;-80
2023/04/30 02:12:57;;;;;;;9.63;4.35;;;5.00;99.90;;;;;;5025420;28;20045;-80
2023/04/30 02:15:23;;;;;;;5.53;4.43;;;5.00;99.90;;;;;;5030201;28;20060;-80
2023/04/30 02:17:49;;;;;;;7.00;4.25;;;4.90;99.90;;;;;;5016922;28;20072;-79
2023/04/30 02:20:14;;;;;;;6.88;4.00;;;4.90;99.90;;;;;;5027560;28;20063;-80
2023/04/30 02:22:40;;;;;;;5.15;4.60;;;4.90;99.90;;;;;;5047206;28;20045;-80
2023/04/30 02:25:06;;;;;;;8.13;4.40;;;4.90;99.90;;;;;;5013560;28;20619;-80
2023/04/30 02:27:32;;;;;;;7.05;4.38;;;4.90;99.90;;;;;;5027708;28;20041;-80
2023/04/30 02:29:58;;;;;;;8.38;4.35;;;4.80;99.90;;;;;;5029758;28;20090;-80
2023/04/30 02:32:24;;;;;;;5.85;4.05;;;4.80;99.90;;;;;;5046744;28;20096;-80
2023/04/30 02:34:50;;;;;;;6.30;3.60;;;4.70;99.90;;;;;;5046892;28;20491;-80
2023/04/30 02:37:16;;;;;;;6.70;4.07;;;4.70;99.90;;;;;;5046420;28;20043;-80
2023/04/30 02:39:41;;;;;;;6.35;4.13;;;4.60;99.90;;;;;;5047463;28;20057;-80
2023/04/30 02:42:08;;;;;;;7.40;4.22;;;4.60;99.90;;;;;;5047379;28;20053;-80
2023/04/30 02:44:35;;;;;;;4.60;3.80;;;4.50;99.90;;;;;;5030114;28;20174;-80
2023/04/30 02:47:01;;;;;;;5.53;3.97;;;4.50;99.90;;;;;;5047548;28;20077;-80
2023/04/30 02:49:27;;;;;;;4.82;4.28;;;4.50;99.90;;;;;;5028884;28;20090;-81
2023/04/30 02:51:53;;;;;;;6.28;3.95;;;4.50;99.90;;;;;;5028159;28;20052;-81
2023/04/30 02:54:19;;;;;;;6.43;4.05;;;4.40;99.90;;;;;;5046731;28;20060;-81
2023/04/30 02:56:45;;;;;;;4.47;4.05;;;4.50;99.90;;;;;;5029255;28;20668;-81
2023/04/30 02:59:11;;;;;;;6.55;4.35;;;4.40;99.90;;;;;;5047825;28;20041;-81
2023/04/30 03:01:36;;;;;;;6.80;4.40;;;4.40;99.90;;;;;;5013468;28;20107;-80
2023/04/30 03:04:03;;;;;;;6.90;4.22;;;4.40;99.90;;;;;;5047571;28;20067;-81
2023/04/30 03:06:30;;;;;;;6.32;4.80;;;4.40;99.90;;;;;;5047234;28;20041;-80
2023/04/30 03:08:55;;;;;;;10.50;4.60;;;4.40;99.90;;;;;;5028745;28;20068;-80
2023/04/30 03:11:21;;;;;;;8.38;5.18;;;4.40;99.90;;;;;;5028366;28;20064;-81
2023/04/30 03:13:50;;;;;;;10.70;4.97;;;4.40;99.90;;;;;;5029600;28;20506;-80
2023/04/30 03:16:20;;;;;;;7.63;5.10;;;4.40;99.90;;;;;;5046979;28;20525;-81
2023/04/30 03:18:49;;;;;;;7.15;4.75;;;4.40;99.90;;;;;;5029504;28;20092;-81
2023/04/30 03:21:14;;;;;;;8.85;5.05;;;4.30;99.90;;;;;;5045942;28;20112;-81
2023/04/30 03:23:40;;;;;;;10.48;5.30;;;4.30;99.90;;;;;;5028297;28;20108;-80
2023/04/30 03:26:07;;;;;;;6.32;5.07;;;4.40;99.90;;;;;;5046970;28;20035;-80
2023/04/30 03:28:33;;;;;;;7.85;4.90;;;4.30;99.90;;;;;;5028545;28;20045;-81
2023/04/30 03:30:59;;;;;;;8.02;4.90;;;4.30;99.90;;;;;;5028481;28;20079;-80
2023/04/30 03:33:25;;;;;;;6.95;5.28;;;4.30;99.90;;;;;;5043865;28;20049;-80
2023/04/30 03:35:50;;;;;;;10.25;5.40;;;4.30;99.90;;;;;;5013035;28;20132;-80
2023/04/30 03:38:16;;;;;;;9.70;5.00;;;4.40;99.90;;;;;;5039252;28;20059;-80
2023/04/30 03:40:42;;;;;;;6.95;5.20;;;4.30;99.90;;;;;;5046421;28;20443;-80
2023/04/30 03:43:08;;;;;;;5.50;4.55;;;4.40;99.90;;;;;;5045364;28;20086;-80
2023/04/30 03:45:33;;;;;;;8.07;5.18;;;4.40;99.90;;;;;;5025482;28;20083;-80
2023/04/30 03:48:00;;;;;;;9.43;5.20;;;4.30;99.90;;;;;;5045930;28;20373;-80
2023/04/30 03:50:25;;;;;;;7.57;5.20;;;4.30;99.90;;;;;;5024208;28;20045;-79
2023/04/30 03:52:51;;;;;;;8.38;5.35;;;4.30;99.90;;;;;;5040773;28;20416;-80
2023/04/30 03:55:17;;;;;;;8.88;4.93;;;4.30;99.90;;;;;;5045961;28;20103;-80
2023/04/30 03:57:43;;;;;;;7.45;5.40;;;4.30;99.90;;;;;;5046644;28;20124;-80
2023/04/30 04:00:09;;;;;;;6.55;5.10;;;4.30;99.90;;;;;;5013381;28;20415;-80
2023/04/30 04:02:36;;;;;;;8.18;5.90;;;4.40;99.90;;;;;;5049047;28;20564;-80
2023/04/30 04:05:02;;;;;;;6.95;5.20;;;4.40;99.90;;;;;;5050256;28;20076;-79
2023/04/30 04:07:28;;;;;;;7.45;4.90;;;4.40;99.90;;;;;;5050960;28;20114;-80
2023/04/30 04:09:54;;;;;;;9.80;5.47;;;4.40;99.90;;;;;;5050606;28;20088;-79
2023/04/30 04:12:20;;;;;;;8.52;5.32;;;4.50;99.90;;;;;;5051734;28;20049;-80
2023/04/30 04:14:46;;;;;;;7.93;5.50;;;4.50;99.90;;;;;;5050647;28;20049;-79
2023/04/30 04:17:11;;;;;;;7.47;5.35;;;4.50;99.90;;;;;;5050751;28;20661;-81
2023/04/30 04:19:37;;;;;;;8.85;5.20;;;4.60;99.90;;;;;;5050817;28;20073;-80
2023/04/30 04:22:03;;;;;;;9.63;4.97;;;4.60;99.90;;;;;;5051225;28;20072;-81
2023/04/30 04:24:29;;;;;;;9.95;6.15;;;4.60;99.90;;;;;;5049849;28;20049;-81
2023/04/30 04:26:55;;;;;;;9.93;5.80;;;4.70;99.90;;;;;;5032927;28;20052;-80
2023/04/30 04:29:20;;;;;;;11.23;6.47;;;4.80;99.90;;;;;;5031418;28;20045;-81
2023/04/30 04:31:47;;;;;;;8.60;6.47;;;4.80;99.90;;;;;;5031090;28;20072;-81
2023/04/30 04:34:13;;;;;;;12.43;6.35;;;4.90;99.90;;;;;;5047809;28;20045;-81
2023/04/30 04:36:39;;;;;;;10.35;6.25;;;5.00;99.90;;;;;;5020361;28;20052;-81
2023/04/30 04:39:05;;;;;;;9.57;6.32;;;5.10;99.90;;;;;;5030954;28;20525;-81
2023/04/30 04:41:35;;;;;;;8.45;6.38;;;5.10;99.90;;;;;;5034737;28;20059;-81
2023/04/30 04:44:02;;;;;;;10.30;6.82;;;5.20;99.90;;;;;;5029873;28;20147;-80
2023/04/30 04:46:28;;;;;;;9.70;6.35;;;5.30;99.90;;;;;;5049398;28;20436;-81
2023/04/30 04:48:54;;;;;;;11.40;6.97;;;5.40;99.90;;;;;;5048228;28;20446;-81
2023/04/30 04:51:20;;;;;;;10.85;6.53;;;5.50;99.90;;;;;;5049451;28;20072;-81
2023/04/30 04:53:45;;;;;;;8.65;6.10;;;5.50;99.90;;;;;;5048920;28;20458;-81
2023/04/30 04:56:11;;;;;;;11.68;6.22;;;5.40;99.90;;;;;;5048731;28;20056;-81
2023/04/30 04:58:37;;;;;;;12.82;6.65;;;5.70;99.90;;;;;;5012385;28;20064;-81
2023/04/30 05:01:04;;;;;;;10.27;6.68;;;5.80;99.90;;;;;;5030196;28;20143;-81
2023/04/30 05:03:31;;;;;;;13.32;7.13;;;5.80;99.90;;;;;;5048663;28;20352;-81
2023/04/30 05:05:57;;;;;;;10.32;6.40;;;6.00;99.90;;;;;;5049055;28;20106;-81
2023/04/30 05:08:23;;;;;;;13.23;6.82;;;6.00;99.90;;;;;;5049372;28;20069;-81
2023/04/30 05:10:48;;;;;;;8.68;6.20;;;6.10;99.90;;;;;;5048382;28;20134;-81
2023/04/30 05:13:14;;;;;;;13.45;6.82;;;6.10;99.90;;;;;;5029650;28;20049;-81
2023/04/30 05:15:39;;;;;;;8.93;6.30;;;6.10;99.90;;;;;;5030691;28;20087;-81
2023/04/30 05:18:05;;;;;;;8.85;6.13;;;6.10;99.90;;;;;;5023143;28;20064;-80
2023/04/30 05:20:30;;;;;;;8.05;5.93;;;6.20;99.90;;;;;;5047495;28;20055;-79
2023/04/30 05:22:56;;;;;;;9.48;5.72;;;6.20;99.90;;;;;;5049440;28;20045;-81
2023/04/30 05:25:22;;;;;;;10.43;6.00;;;6.40;99.90;;;;;;5031451;28;20044;-81
2023/04/30 05:27:47;;;;;;;8.00;5.88;;;6.60;99.90;;;;;;5031212;28;20040;-81
2023/04/30 05:30:14;;;;;;;11.43;6.03;;;6.80;99.90;;;;;;5027416;28;20084;-80
2023/04/30 05:32:41;;;;;;;12.52;5.95;;;7.00;99.90;;;;;;5040324;28;20471;-80
2023/04/30 05:35:07;;;;;;;7.97;5.88;;;7.40;99.90;;;;;;5044873;28;20060;-81
2023/04/30 05:37:33;;;;;;;8.27;5.57;;;7.50;99.90;;;;;;5029230;28;20041;-80
2023/04/30 05:39:58;;;;;;;8.50;5.45;;;7.60;99.90;;;;;;5030853;28;20049;-80
2023/04/30 05:42:24;;;;;;;11.43;6.57;;;7.70;99.90;;;;;;5049604;28;20483;-82
2023/04/30 05:44:53;;;;;;;8.27;5.50;;;7.60;99.90;;;;;;5049498;28;20088;-81
2023/04/30 05:47:18;;;;;;;10.27;5.40;;;7.50;99.90;;;;;;5028749;28;20048;-82
2023/04/30 05:49:44;;;;;;;9.15;5.22;;;8.30;99.90;;;;;;5030939;28;20048;-82
2023/04/30 05:52:10;;;;;;;10.27;5.72;;;9.20;99.90;;;;;;5029807;28;20053;-82
2023/04/30 05:54:35;;;;;;;8.60;5.13;;;10.10;99.90;;;;;;5026186;28;20116;-81
2023/04/30 05:57:01;;;;;;;7.10;4.65;;;10.80;99.90;;;;;;5013121;28;20131;-81
2023/04/30 05:59:27;;;;;;;8.70;4.93;;;11.70;99.90;;;;;;5048395;28;20499;-81
2023/04/30 06:01:52;;;;;;;8.13;4.97;;;11.80;99.90;;;;;;5034220;28;20222;-81
2023/04/30 06:04:18;;;;;;;9.77;5.15;;;12.10;99.90;;;;;;5035668;28;20033;-80
2023/04/30 06:06:43;;;;;;;6.78;4.45;;;12.40;99.90;;;;;;5048601;28;20053;-79
2023/04/30 06:09:09;;;;;;;9.88;4.15;;;12.50;99.90;;;;;;5048276;28;20068;-79
2023/04/30 06:11:36;;;;;;;9.05;4.47;;;12.10;99.90;;;;;;5048928;28;20041;-79
2023/04/30 06:14:02;;;;;;;6.65;3.70;;;11.20;99.90;;;;;;5029141;28;20186;-79
2023/04/30 06:16:28;;;;;;;11.38;4.20;;;10.50;99.90;;;;;;5043542;28;20049;-80
2023/04/30 06:18:53;;;;;;;7.50;4.10;;;10.00;99.90;;;;;;5030224;28;20071;-79
2023/04/30 06:21:19;;;;;;;9.88;4.20;;;9.70;99.90;;;;;;5030493;28;20049;-80
2023/04/30 06:23:45;;;;;;;11.63;4.78;;;9.50;99.90;;;;;;5047925;28;20037;-80
2023/04/30 06:26:13;;;;;;;10.98;3.78;;;9.30;99.90;;;;;;5030876;28;20071;-80
2023/04/30 06:28:39;;;;;;;8.73;4.22;;;9.10;99.90;;;;;;5048762;28;20131;-79
2023/04/30 06:31:05;;;;;;;7.57;4.03;;;9.10;99.90;;;;;;5046894;28;20155;-80
2023/04/30 06:33:30;;;;;;;9.55;4.22;;;9.00;99.90;;;;;;5044905;28;20044;-79
2023/04/30 06:35:56;;;;;;;6.40;3.95;;;8.90;99.90;;;;;;5030225;28;20395;-79
2023/04/30 06:38:22;;;;;;;8.20;4.38;;;8.90;99.90;;;;;;5047844;28;20045;-79
2023/04/30 06:40:47;;;;;;;6.53;3.75;;;8.90;99.90;;;;;;5045635;28;20057;-79
2023/04/30 06:43:13;;;;;;;8.32;3.88;;;8.90;99.90;;;;;;5047420;28;20052;-80
2023/04/30 06:45:39;;;;;;;5.97;3.80;;;8.90;99.90;;;;;;5029725;28;20037;-79
2023/04/30 06:48:04;;;;;;;10.15;3.88;;;9.00;99.90;;;;;;5047386;28;20067;-79
2023/04/30 06:50:30;;;;;;;5.53;3.38;;;9.00;99.90;;;;;;5030559;28;20459;-79
2023/04/30 06:52:55;;;;;;;14.57;4.53;;;9.10;99.90;;;;;;5028381;28;20045;-79
2023/04/30 06:55:21;;;;;;;9.23;3.65;;;9.20;99.90;;;;;;5048146;28;20045;-79
2023/04/30 06:57:47;;;;;;;7.28;3.45;;;9.30;99.90;;;;;;5012910;28;20056;-79
2023/04/30 07:00:14;;;;;;;5.70;3.13;;;9.40;99.90;;;;;;5045527;28;20048;-80
2023/04/30 07:02:40;;;;;;;8.15;3.42;;;9.80;99.90;;;;;;5047867;28;20388;-79
2023/04/30 07:05:06;;;;;;;6.50;3.30;;;9.60;99.90;;;;;;5047662;28;20048;-80
2023/04/30 07:07:32;;;;;;;8.95;3.33;;;9.80;99.90;;;;;;5029117;28;20040;-81
2023/04/30 07:09:58;;;;;;;11.38;3.75;;;9.90;99.90;;;;;;5045465;28;20495;-80
2023/04/30 07:12:23;;;;;;;9.65;3.00;;;10.00;99.90;;;;;;5028585;28;20048;-80
2023/04/30 07:14:49;;;;;;;5.80;2.78;;;10.10;99.90;;;;;;5027222;28;20044;-80
2023/04/30 07:17:15;;;;;;;6.47;3.28;;;10.20;99.90;;;;;;5027022;28;20041;-80
2023/04/30 07:19:40;;;;;;;7.30;3.70;;;10.30;99.90;;;;;;5045905;28;20075;-80
2023/04/30 07:22:06;;;;;;;6.43;3.42;;;10.30;99.90;;;;;;5046504;28;20102;-80
2023/04/30 07:24:33;;;;;;;6.13;3.00;;;10.50;99.90;;;;;;5027631;28;20045;-80
2023/04/30 07:27:01;;;;;;;11.27;3.10;;;10.70;99.90;;;;;;5046196;28;20049;-80
2023/04/30 07:29:28;;;;;;;8.45;2.97;;;10.70;99.90;;;;;;5027018;28;20052;-80
2023/04/30 07:31:54;;;;;;;7.28;3.35;;;10.90;99.90;;;;;;5027691;28;20064;-80
2023/04/30 07:34:19;;;;;;;6.63;3.00;;;10.90;99.90;;;;;;5028769;28;20053;-80
2023/04/30 07:36:46;;;;;;;8.40;3.22;;;10.90;99.90;;;;;;5029888;28;20045;-80
2023/04/30 07:39:12;;;;;;;6.78;2.95;;;10.90;99.90;;;;;;5016215;28;20053;-80
2023/04/30 07:41:38;;;;;;;9.77;3.20;;;10.90;99.90;;;;;;5033127;28;20051;-80
2023/04/30 07:44:04;;;;;;;7.05;3.28;;;10.90;99.90;;;;;;5033157;28;20049;-80
2023/04/30 07:46:29;;;;;;;8.00;3.28;;;10.90;99.90;;;;;;5016639;28;20140;-80
2023/04/30 07:48:55;;;;;;;8.65;3.58;;;11.00;99.90;;;;;;5032446;28;20130;-80
2023/04/30 07:51:21;;;;;;;10.18;3.75;;;11.10;99.90;;;;;;5050606;28;20280;-80
2023/04/30 07:53:46;;;;;;;8.77;2.78;;;11.30;99.90;;;;;;5050697;28;20132;-80
2023/04/30 07:56:12;;;;;;;6.40;2.90;;;11.30;99.90;;;;;;5050569;28;20048;-81
2023/04/30 07:58:38;;;;;;;7.18;3.38;;;11.20;99.90;;;;;;5050109;28;20037;-82
2023/04/30 08:01:03;;;;;;;7.05;2.63;;;11.10;99.90;;;;;;5033107;28;20041;-81
2023/04/30 08:03:29;;;;;;;8.35;2.72;;;11.10;99.90;;;;;;5031862;28;20374;-82
2023/04/30 08:05:55;;;;;;;8.40;3.40;;;11.10;99.90;;;;;;5013261;28;20669;-80
2023/04/30 08:08:20;;;;;;;5.38;3.30;;;11.10;99.90;;;;;;5028684;28;20103;-78
2023/04/30 08:10:46;;;;;;;8.93;3.50;;;11.10;99.90;;;;;;5031168;28;20054;-79
2023/04/30 08:13:12;;;;;;;6.65;3.75;;;11.20;99.90;;;;;;5029810;28;20041;-79
2023/04/30 08:15:38;;;;;;;10.60;3.92;;;11.10;99.90;;;;;;5030126;28;20302;-80
2023/04/30 08:18:04;;;;;;;7.15;3.88;;;11.10;99.90;;;;;;5031141;28;20053;-80
2023/04/30 08:20:31;;;;;;;7.18;3.72;;;11.10;99.90;;;;;;5048017;28;20052;-80
2023/04/30 08:22:57;;;;;;;7.15;3.42;;;11.10;99.90;;;;;;5050209;28;20044;-80
2023/04/30 08:25:22;;;;;;;9.63;3.92;;;11.10;99.90;;;;;;5028698;28;20465;-80
2023/04/30 08:27:48;;;;;;;7.45;3.28;;;11.20;99.90;;;;;;5030606;28;20402;-81
2023/04/30 08:30:14;;;;;;;9.75;3.80;;;11.20;99.90;;;;;;5030661;28;20053;-80
2023/04/30 08:32:40;;;;;;;7.15;3.95;;;11.20;99.90;;;;;;5030419;28;20530;-80
2023/04/30 08:35:06;;;;;;;12.43;4.22;;;11.30;99.90;;;;;;5012892;28;20046;-80
2023/04/30 08:37:32;;;;;;;8.02;3.25;;;11.30;99.90;;;;;;5033968;28;20076;-80
2023/04/30 08:39:58;;;;;;;6.57;3.17;;;11.40;99.90;;;;;;5049780;28;20087;-80
2023/04/30 08:42:30;;;;;;;11.10;3.20;;;11.40;99.90;;;;;;5049742;28;20921;-81
2023/04/30 08:44:59;;;;;;;6.85;3.42;;;11.50;99.90;;;;;;5049901;28;20049;-80
2023/04/30 08:47:25;;;;;;;5.85;2.90;;;11.50;99.90;;;;;;5032404;28;20052;-80
2023/04/30 08:49:50;;;;;;;6.07;2.80;;;11.60;99.90;;;;;;5031219;28;20438;-79
2023/04/30 08:52:18;;;;;;;7.15;3.15;;;11.70;99.90;;;;;;5050580;28;20045;-79
2023/04/30 08:54:45;;;;;;;6.07;3.22;;;11.70;99.90;;;;;;5037281;28;20051;-79
2023/04/30 08:57:10;;;;;;;8.05;2.97;;;11.60;99.90;;;;;;5032012;28;20048;-79
2023/04/30 08:59:36;;;;;;;8.40;3.17;;;11.60;99.90;;;;;;5031848;28;20053;-78
2023/04/30 09:02:01;;;;;;;5.60;2.65;;;11.70;99.90;;;;;;5049766;28;20056;-79
2023/04/30 09:04:28;;;;;;;6.05;2.88;;;11.80;99.90;;;;;;5049807;28;20063;-79
2023/04/30 09:06:57;;;;;;;5.20;2.75;;;12.00;99.90;;;;;;5031753;28;20080;-79
2023/04/30 09:09:28;;;;;;;7.18;2.90;;;12.20;99.90;;;;;;5042433;28;20115;-78
2023/04/30 09:12:23;;;;;;;6.47;2.97;;;12.40;99.90;;;;;;5047929;28;20045;-78
2023/04/30 09:15:03;;;;;;;9.57;2.88;;;12.70;99.90;;;;;;5037021;28;20226;-78
2023/04/30 09:17:30;;;;;;;6.97;3.38;;;12.90;99.90;;;;;;5015547;28;20048;-79
2023/04/30 09:20:26;;;;;;;6.95;3.03;;;13.10;99.90;;;;;;5032212;28;20080;-78
2023/04/30 09:23:07;;;;;;;7.22;3.13;;;13.20;99.90;;;;;;5002817;28;20063;-79
2023/04/30 09:25:41;;;;;;;7.40;3.10;;;13.40;99.90;;;;;;5030380;28;20055;-79
2023/04/30 09:28:11;;;;;;;7.68;3.15;;;13.40;99.90;;;;;;5049182;28;20067;-79
2023/04/30 09:30:38;;;;;;;11.52;3.10;;;13.40;99.90;;;;;;5048740;28;20163;-79
2023/04/30 09:33:03;;;;;;;7.35;2.95;;;13.40;99.90;;;;;;5031105;28;20069;-79
2023/04/30 09:35:43;;;;;;;8.10;2.58;;;13.40;99.90;;;;;;5031061;28;20099;-80
2023/04/30 09:38:25;;;;;;;7.07;2.65;;;13.40;99.90;;;;;;5048852;28;20056;-79
2023/04/30 09:40:51;;;;;;;;;;;13.40;99.90;;;;;;5049076;28;20053;-79
2023/04/30 09:43:18;;;;;;;5.70;3.20;;;13.50;99.90;;;;;;5032015;28;19927;-79
2023/04/30 09:45:50;;;;;;;9.50;3.13;;;13.60;99.90;;;;;;5031099;28;20049;-79
2023/04/30 09:48:17;;;;;;;5.50;3.13;;;13.70;99.90;;;;;;5031217;28;20510;-78
2023/04/30 09:50:43;;;;;;;5.75;2.60;;;13.70;99.90;;;;;;5048671;28;20357;-79
2023/04/30 09:53:16;;;;;;;5.63;2.63;;;13.70;99.90;;;;;;5047128;28;20106;-78
2023/04/30 09:55:47;;;;;;;4.43;2.58;;;13.70;99.90;;;;;;5048405;28;20193;-78
2023/04/30 09:58:13;;;;;;;7.38;3.95;;;13.60;99.90;;;;;;5013399;28;20040;-78
2023/04/30 10:00:40;;;;;;;6.70;3.35;;;13.80;99.90;;;;;;5047702;28;20071;-78
2023/04/30 10:03:08;;;;;;;4.35;2.70;;;13.80;99.90;;;;;;5030912;28;20055;-78
2023/04/30 10:05:41;;;;;;;6.55;3.08;;;13.80;99.90;;;;;;5013195;28;20053;-78
2023/04/30 10:08:17;;;;;;;4.53;2.75;;;13.70;99.90;;;;;;5046236;28;20532;-78
2023/04/30 10:10:45;;;;;;;6.00;2.25;;;13.80;99.90;;;;;;5014268;28;20662;-78
2023/04/30 10:13:15;;;;;;;6.95;3.20;;;14.00;99.90;;;;;;5064375;28;20044;-78
2023/04/30 10:15:53;;;;;;;6.78;2.90;;;14.10;99.90;;;;;;5047523;28;20431;-78
2023/04/30 10:18:25;;;;;;;5.60;2.83;;;14.10;99.80;;;;;;5048620;28;20494;-77
2023/04/30 10:20:54;;;;;;;7.28;2.92;;;14.20;99.90;;;;;;5030171;28;20058;-78
2023/04/30 10:23:21;;;;;;;4.53;2.28;;;14.20;99.90;;;;;;5047912;28;20110;-78
2023/04/30 10:25:47;;;;;;;10.23;3.55;;;14.30;99.90;;;;;;5047214;28;20133;-78
2023/04/30 10:28:13;;;;;;;4.28;2.38;;;14.30;99.90;;;;;;5047978;28;20483;-78
2023/04/30 10:30:40;;;;;;;5.75;2.58;;;14.40;99.90;;;;;;5028967;28;20056;-77
2023/04/30 10:33:48;;;;;;;5.28;2.33;;;14.50;99.90;;;;;;5048158;28;20047;-78
2023/04/30 10:36:29;;;;;;;5.30;2.35;;;14.60;99.50;;;;;;5048171;28;20094;-78
2023/04/30 10:38:57;;;;;;;5.13;2.40;;;14.60;99.80;;;;;;5047789;28;20055;-80
2023/04/30 10:41:25;;;;;;;5.80;2.40;;;14.50;99.40;;;;;;5029246;28;20536;-77
2023/04/30 10:43:56;;;;;;;5.45;2.08;;;14.50;98.70;;;;;;5047634;28;20403;-78
2023/04/30 10:46:23;;;;;;;4.90;2.20;;;14.50;97.90;;;;;;5028463;28;20048;-78
2023/04/30 10:48:52;;;;;;;5.78;2.47;;;14.50;98.10;;;;;;5046719;28;20113;-79
2023/04/30 10:51:19;;;;;;;4.95;2.28;;;14.40;97.90;;;;;;5047860;28;20056;-79
2023/04/30 10:53:50;;;;;;;6.20;2.25;;;14.30;97.20;;;;;;5028482;28;20076;-79
2023/04/30 10:56:30;;;;;;;4.90;2.53;;;14.20;97.50;;;;;;5028778;28;20517;-78
2023/04/30 10:59:00;;;;;;;6.25;2.13;;;14.20;95.30;;;;;;5041472;28;20104;-78
2023/04/30 11:01:25;;;;;;;8.77;2.63;;;14.30;97.00;;;;;;5028912;28;20115;-79
2023/04/30 11:04:07;;;;;;;4.10;2.58;;;14.40;97.30;;;;;;5042059;28;20444;-78
2023/04/30 11:06:51;;;;;;;6.85;2.50;;;14.60;97.20;;;;;;5047779;28;20131;-77
2023/04/30 11:09:18;;;;;;;5.85;2.83;;;14.90;95.40;;;;;;5046687;28;20080;-78
2023/04/30 11:11:44;;;;;;;4.93;2.13;;;14.60;96.20;;;;;;5044915;28;20060;-78
2023/04/30 11:14:11;;;;;;;3.92;2.33;;;14.60;96.50;;;;;;5043831;28;20052;-78
2023/04/30 11:16:37;;;;;;;3.15;1.95;;;14.80;96.70;;;;;;5045926;28;20045;-78
2023/04/30 11:19:10;;;;;;;4.50;2.72;;;14.80;96.00;;;;;;5027482;28;20095;-79
2023/04/30 11:22:01;;;;;;;5.50;2.40;;;14.70;94.90;;;;;;5046275;28;20079;-78
2023/04/30 11:24:53;;;;;;;5.28;2.60;;;14.70;94.80;;;;;;5028179;28;20057;-78
2023/04/30 11:27:23;;;;;;;3.58;2.10;;;14.70;95.60;;;;;;5045909;28;20172;-78
2023/04/30 11:29:53;;;;;;;3.42;2.08;;;15.30;96.60;;;;;;5059996;28;20482;-78
2023/04/30 11:32:21;;;;;;;6.40;2.60;;;14.60;96.50;;;;;;5046981;28;20037;-78
2023/04/30 11:34:47;;;;;;;3.75;2.50;;;14.70;97.10;;;;;;5047324;28;20053;-79
2023/04/30 11:37:36;;;;;;;3.85;2.28;;;14.90;97.10;;;;;;5028888;28;20120;-79
2023/04/30 11:40:09;;;;;;;5.63;2.17;;;15.00;96.10;;;;;;5029082;28;20096;-78
2023/04/30 11:42:38;;;;;;;5.13;2.42;;;15.10;96.70;;;;;;5046958;28;20052;-79
2023/04/30 11:45:12;;;;;;;3.20;2.30;;;15.10;96.90;;;;;;5045323;28;20446;-80
2023/04/30 11:47:43;;;;;;;5.80;3.00;;;15.30;96.80;;;;;;5059281;28;20130;-79
2023/04/30 11:50:10;;;;;;;3.38;2.58;;;15.90;96.50;;;;;;5046865;28;20041;-79
2023/04/30 11:52:37;;;;;;;5.25;2.55;;;15.20;95.50;;;;;;5046960;28;20057;-79
2023/04/30 11:55:16;;;;;;;4.03;2.58;;;15.10;95.50;;;;;;5047585;28;20403;-80
2023/04/30 11:57:46;;;;;;;6.45;2.28;;;15.10;95.30;;;;;;5028936;28;20080;-80
2023/04/30 12:00:14;;;;;;;2.40;2.20;;;15.20;96.10;;;;;;5045915;28;20080;-79
2023/04/30 12:02:44;;;;;;;3.28;2.33;;;15.40;96.20;;;;;;5046510;28;20444;-80
2023/04/30 12:05:18;;;;;;;4.72;2.50;;;15.50;95.50;;;;;;5046626;28;20483;-79
2023/04/30 12:08:08;;;;;;;3.60;2.03;;;15.60;95.40;;;;;;5045921;28;20053;-79
2023/04/30 12:10:34;;;;;;;3.35;2.42;;;15.60;91.80;;;;;;5046214;28;20183;-79
2023/04/30 12:13:01;;;;;;;2.95;1.90;;;15.70;95.00;;;;;;5028649;28;21007;-79
2023/04/30 12:15:27;;;;;;;3.90;2.53;;;15.70;94.80;;;;;;5046674;28;20065;-79
2023/04/30 12:17:58;;;;;;;4.20;2.30;;;15.80;94.70;;;;;;5046672;28;20056;-79
2023/04/30 12:20:27;;;;;;;2.17;1.98;;;15.80;94.10;;;;;;5046462;28;20041;-79
2023/04/30 12:22:55;;;;;;;2.40;1.95;;;15.80;93.90;;;;;;5028674;28;20072;-79
2023/04/30 12:25:22;;;;;;;3.72;2.00;;;15.80;93.70;;;;;;5048547;28;20045;-79
2023/04/30 12:27:52;;;;;;;3.53;2.08;;;15.80;93.10;;;;;;5050702;28;20041;-79
2023/04/30 12:30:22;;;;;;;2.97;1.75;;;15.90;93.40;;;;;;5050166;28;20093;-79
2023/04/30 12:32:53;;;;;;;2.50;1.90;;;16.00;92.80;;;;;;5049958;28;20045;-79
2023/04/30 12:35:23;;;;;;;2.70;2.08;;;16.00;93.10;;;;;;5049646;28;20041;-79
2023/04/30 12:37:53;;;;;;;4.18;1.88;;;16.20;92.70;;;;;;5049397;28;20468;-79
2023/04/30 12:40:20;;;;;;;3.17;2.05;;;16.20;93.20;;;;;;5049650;28;20415;-79
2023/04/30 12:42:46;;;;;;;3.45;1.85;;;16.40;93.60;;;;;;5050309;28;20085;-79
2023/04/30 12:45:33;;;;;;;3.47;2.03;;;16.40;93.40;;;;;;5048938;28;20041;-79
2023/04/30 12:47:59;;;;;;;3.53;1.88;;;16.40;93.20;;;;;;5030962;28;20399;-79
2023/04/30 12:50:25;;;;;;;3.13;2.10;;;16.60;93.00;;;;;;5048045;28;20530;-79
2023/04/30 12:52:50;;;;;;;4.70;2.60;;;17.10;92.90;;;;;;5049785;28;20152;-79
2023/04/30 12:55:20;;;;;;;1.73;1.60;;;16.80;92.30;;;;;;5048147;28;20151;-79
2023/04/30 12:58:05;;;;;;;2.25;1.88;;;16.90;92.30;;;;;;5049017;28;20048;-79